sensor_id;sensor_type;location;lat;lon;timestamp;P1;durP1;ratioP1;P2;durP2;ratioP2
49396;SDS011;35615;41.410;2.194;2023-04-01T00:02:37;27.02;;;8.20;;
49396;SDS011;35615;41.410;2.194;2023-04-01T00:05:08;25.35;;;7.70;;
49396;SDS011;35615;41.410;2.194;2023-04-01T00:07:40;21.52;;;8.30;;
49396;SDS011;35615;41.410;2.194;2023-04-01T00:10:08;29.77;;;8.32;;
49396;SDS011;35615;41.410;2.194;2023-04-01T00:12:38;29.60;;;8.23;;
49396;SDS011;35615;41.410;2.194;2023-04-01T00:15:06;21.92;;;8.50;;
49396;SDS011;35615;41.410;2.194;2023-04-01T00:17:35;24.83;;;8.73;;
49396;SDS011;35615;41.410;2.194;2023-04-01T00:20:03;29.50;;;9.73;;
49396;SDS011;35615;41.410;2.194;2023-04-01T00:22:32;30.45;;;9.25;;
49396;SDS011;35615;41.410;2.194;2023-04-01T00:25:02;24.88;;;8.52;;
49396;SDS011;35615;41.410;2.194;2023-04-01T00:27:31;23.55;;;8.63;;
49396;SDS011;35615;41.410;2.194;2023-04-01T00:30:01;21.02;;;9.25;;
49396;SDS011;35615;41.410;2.194;2023-04-01T00:32:29;30.85;;;7.45;;
49396;SDS011;35615;41.410;2.194;2023-04-01T00:34:57;20.92;;;7.65;;
49396;SDS011;35615;41.410;2.194;2023-04-01T00:37:26;32.13;;;8.35;;
49396;SDS011;35615;41.410;2.194;2023-04-01T00:39:54;23.65;;;8.38;;
49396;SDS011;35615;41.410;2.194;2023-04-01T00:42:22;23.73;;;8.75;;
49396;SDS011;35615;41.410;2.194;2023-04-01T00:44:51;25.15;;;8.23;;
49396;SDS011;35615;41.410;2.194;2023-04-01T00:47:23;17.05;;;8.38;;
49396;SDS011;35615;41.410;2.194;2023-04-01T00:49:53;30.80;;;8.83;;
49396;SDS011;35615;41.410;2.194;2023-04-01T00:52:22;27.55;;;8.73;;
49396;SDS011;35615;41.410;2.194;2023-04-01T00:54:54;28.27;;;8.68;;
49396;SDS011;35615;41.410;2.194;2023-04-01T00:57:29;32.53;;;9.23;;
49396;SDS011;35615;41.410;2.194;2023-04-01T01:00:05;28.05;;;9.25;;
49396;SDS011;35615;41.410;2.194;2023-04-01T01:02:48;23.48;;;9.13;;
49396;SDS011;35615;41.410;2.194;2023-04-01T01:05:37;28.35;;;8.95;;
49396;SDS011;35615;41.410;2.194;2023-04-01T01:12:14;32.60;;;9.05;;
49396;SDS011;35615;41.410;2.194;2023-04-01T01:25:38;32.75;;;9.85;;
49396;SDS011;35615;41.410;2.194;2023-04-01T01:32:16;41.50;;;9.48;;
49396;SDS011;35615;41.410;2.194;2023-04-01T01:35:05;29.60;;;8.90;;
49396;SDS011;35615;41.410;2.194;2023-04-01T01:37:56;44.80;;;9.27;;
49396;SDS011;35615;41.410;2.194;2023-04-01T01:40:41;24.95;;;8.52;;
49396;SDS011;35615;41.410;2.194;2023-04-01T01:43:30;30.77;;;10.00;;
49396;SDS011;35615;41.410;2.194;2023-04-01T01:46:28;26.48;;;9.18;;
49396;SDS011;35615;41.410;2.194;2023-04-01T01:49:14;33.53;;;9.57;;
49396;SDS011;35615;41.410;2.194;2023-04-01T01:51:57;24.42;;;10.02;;
49396;SDS011;35615;41.410;2.194;2023-04-01T01:54:52;24.83;;;8.90;;
49396;SDS011;35615;41.410;2.194;2023-04-01T01:57:49;35.50;;;9.98;;
49396;SDS011;35615;41.410;2.194;2023-04-01T02:00:33;28.05;;;8.77;;
49396;SDS011;35615;41.410;2.194;2023-04-01T02:03:02;36.03;;;9.98;;
49396;SDS011;35615;41.410;2.194;2023-04-01T02:05:31;25.02;;;8.98;;
49396;SDS011;35615;41.410;2.194;2023-04-01T02:08:07;29.50;;;9.88;;
49396;SDS011;35615;41.410;2.194;2023-04-01T02:10:40;28.80;;;8.85;;
49396;SDS011;35615;41.410;2.194;2023-04-01T02:13:24;36.85;;;9.82;;
49396;SDS011;35615;41.410;2.194;2023-04-01T02:16:04;27.67;;;9.05;;
49396;SDS011;35615;41.410;2.194;2023-04-01T02:18:40;25.88;;;10.00;;
49396;SDS011;35615;41.410;2.194;2023-04-01T02:21:10;32.45;;;9.13;;
49396;SDS011;35615;41.410;2.194;2023-04-01T02:23:39;31.55;;;9.32;;
49396;SDS011;35615;41.410;2.194;2023-04-01T02:26:07;28.40;;;9.88;;
49396;SDS011;35615;41.410;2.194;2023-04-01T02:28:40;33.33;;;9.38;;
49396;SDS011;35615;41.410;2.194;2023-04-01T02:31:10;30.63;;;9.45;;
49396;SDS011;35615;41.410;2.194;2023-04-01T02:33:39;28.52;;;9.63;;
49396;SDS011;35615;41.410;2.194;2023-04-01T02:36:17;28.20;;;9.07;;
49396;SDS011;35615;41.410;2.194;2023-04-01T02:38:45;30.10;;;9.32;;
49396;SDS011;35615;41.410;2.194;2023-04-01T02:41:14;29.30;;;8.65;;
49396;SDS011;35615;41.410;2.194;2023-04-01T02:43:41;28.83;;;9.23;;
49396;SDS011;35615;41.410;2.194;2023-04-01T02:46:09;26.23;;;9.02;;
49396;SDS011;35615;41.410;2.194;2023-04-01T02:48:37;26.70;;;9.65;;
49396;SDS011;35615;41.410;2.194;2023-04-01T02:51:07;32.70;;;9.98;;
49396;SDS011;35615;41.410;2.194;2023-04-01T02:53:35;39.38;;;9.38;;
49396;SDS011;35615;41.410;2.194;2023-04-01T02:56:06;28.88;;;9.13;;
49396;SDS011;35615;41.410;2.194;2023-04-01T02:58:33;32.63;;;9.98;;
49396;SDS011;35615;41.410;2.194;2023-04-01T03:01:03;26.95;;;8.80;;
49396;SDS011;35615;41.410;2.194;2023-04-01T03:03:38;37.53;;;10.43;;
49396;SDS011;35615;41.410;2.194;2023-04-01T03:06:10;26.42;;;8.88;;
49396;SDS011;35615;41.410;2.194;2023-04-01T03:08:39;36.17;;;9.73;;
49396;SDS011;35615;41.410;2.194;2023-04-01T03:11:14;33.35;;;9.25;;
49396;SDS011;35615;41.410;2.194;2023-04-01T03:13:42;24.45;;;9.60;;
49396;SDS011;35615;41.410;2.194;2023-04-01T03:16:15;28.55;;;8.80;;
49396;SDS011;35615;41.410;2.194;2023-04-01T03:18:50;29.23;;;9.55;;
49396;SDS011;35615;41.410;2.194;2023-04-01T03:21:23;35.30;;;9.48;;
49396;SDS011;35615;41.410;2.194;2023-04-01T03:23:51;23.35;;;9.13;;
49396;SDS011;35615;41.410;2.194;2023-04-01T03:26:24;27.88;;;8.88;;
49396;SDS011;35615;41.410;2.194;2023-04-01T03:28:53;31.15;;;9.77;;
49396;SDS011;35615;41.410;2.194;2023-04-01T03:31:25;33.92;;;9.93;;
49396;SDS011;35615;41.410;2.194;2023-04-01T03:33:56;31.35;;;9.07;;
49396;SDS011;35615;41.410;2.194;2023-04-01T03:36:26;37.22;;;10.23;;
49396;SDS011;35615;41.410;2.194;2023-04-01T03:38:56;35.00;;;9.20;;
49396;SDS011;35615;41.410;2.194;2023-04-01T03:41:38;26.73;;;10.60;;
49396;SDS011;35615;41.410;2.194;2023-04-01T03:44:14;33.72;;;9.25;;
49396;SDS011;35615;41.410;2.194;2023-04-01T03:46:50;29.42;;;9.40;;
49396;SDS011;35615;41.410;2.194;2023-04-01T03:49:23;23.45;;;9.88;;
49396;SDS011;35615;41.410;2.194;2023-04-01T03:51:53;27.92;;;9.05;;
49396;SDS011;35615;41.410;2.194;2023-04-01T03:54:28;32.40;;;10.25;;
49396;SDS011;35615;41.410;2.194;2023-04-01T03:56:58;31.48;;;9.05;;
49396;SDS011;35615;41.410;2.194;2023-04-01T04:02:45;28.17;;;9.30;;
49396;SDS011;35615;41.410;2.194;2023-04-01T04:05:19;33.05;;;9.45;;
49396;SDS011;35615;41.410;2.194;2023-04-01T04:07:46;43.22;;;10.02;;
49396;SDS011;35615;41.410;2.194;2023-04-01T04:10:16;32.05;;;8.82;;
49396;SDS011;35615;41.410;2.194;2023-04-01T04:12:44;29.95;;;9.40;;
49396;SDS011;35615;41.410;2.194;2023-04-01T04:15:11;36.13;;;9.30;;
49396;SDS011;35615;41.410;2.194;2023-04-01T04:17:39;36.65;;;9.48;;
49396;SDS011;35615;41.410;2.194;2023-04-01T04:20:06;38.60;;;11.07;;
49396;SDS011;35615;41.410;2.194;2023-04-01T04:22:40;31.90;;;10.02;;
49396;SDS011;35615;41.410;2.194;2023-04-01T04:25:08;34.35;;;10.02;;
49396;SDS011;35615;41.410;2.194;2023-04-01T04:27:39;41.05;;;9.07;;
49396;SDS011;35615;41.410;2.194;2023-04-01T04:30:09;41.03;;;10.40;;
49396;SDS011;35615;41.410;2.194;2023-04-01T04:32:37;31.60;;;9.13;;
49396;SDS011;35615;41.410;2.194;2023-04-01T04:35:10;36.63;;;9.40;;
49396;SDS011;35615;41.410;2.194;2023-04-01T04:37:38;33.88;;;9.05;;
49396;SDS011;35615;41.410;2.194;2023-04-01T04:40:10;41.80;;;9.93;;
49396;SDS011;35615;41.410;2.194;2023-04-01T04:42:38;28.98;;;9.82;;
49396;SDS011;35615;41.410;2.194;2023-04-01T04:45:10;35.92;;;10.50;;
49396;SDS011;35615;41.410;2.194;2023-04-01T04:47:45;28.67;;;9.07;;
49396;SDS011;35615;41.410;2.194;2023-04-01T04:50:15;30.70;;;9.23;;
49396;SDS011;35615;41.410;2.194;2023-04-01T04:52:46;30.80;;;8.93;;
49396;SDS011;35615;41.410;2.194;2023-04-01T04:55:16;34.63;;;9.93;;
49396;SDS011;35615;41.410;2.194;2023-04-01T04:58:06;35.75;;;9.45;;
49396;SDS011;35615;41.410;2.194;2023-04-01T05:00:34;36.53;;;9.23;;
49396;SDS011;35615;41.410;2.194;2023-04-01T05:03:05;42.88;;;10.95;;
49396;SDS011;35615;41.410;2.194;2023-04-01T05:05:34;35.45;;;10.05;;
49396;SDS011;35615;41.410;2.194;2023-04-01T05:08:03;36.35;;;9.63;;
49396;SDS011;35615;41.410;2.194;2023-04-01T05:10:31;35.20;;;11.65;;
49396;SDS011;35615;41.410;2.194;2023-04-01T05:13:01;40.40;;;10.57;;
49396;SDS011;35615;41.410;2.194;2023-04-01T05:15:31;37.00;;;10.57;;
49396;SDS011;35615;41.410;2.194;2023-04-01T05:18:01;28.02;;;9.93;;
49396;SDS011;35615;41.410;2.194;2023-04-01T05:20:29;37.70;;;10.30;;
49396;SDS011;35615;41.410;2.194;2023-04-01T05:22:56;30.75;;;10.07;;
49396;SDS011;35615;41.410;2.194;2023-04-01T05:25:28;27.30;;;9.70;;
49396;SDS011;35615;41.410;2.194;2023-04-01T05:27:56;39.47;;;10.30;;
49396;SDS011;35615;41.410;2.194;2023-04-01T05:30:25;32.95;;;11.07;;
49396;SDS011;35615;41.410;2.194;2023-04-01T05:32:59;28.52;;;9.98;;
49396;SDS011;35615;41.410;2.194;2023-04-01T05:35:27;46.75;;;10.40;;
49396;SDS011;35615;41.410;2.194;2023-04-01T05:37:54;43.13;;;10.48;;
49396;SDS011;35615;41.410;2.194;2023-04-01T05:40:25;38.28;;;10.50;;
49396;SDS011;35615;41.410;2.194;2023-04-01T05:42:56;39.42;;;11.18;;
49396;SDS011;35615;41.410;2.194;2023-04-01T05:45:23;35.47;;;10.40;;
49396;SDS011;35615;41.410;2.194;2023-04-01T05:47:59;37.58;;;9.80;;
49396;SDS011;35615;41.410;2.194;2023-04-01T05:50:33;36.63;;;9.43;;
49396;SDS011;35615;41.410;2.194;2023-04-01T05:53:01;45.47;;;10.68;;
49396;SDS011;35615;41.410;2.194;2023-04-01T05:55:28;42.83;;;9.98;;
49396;SDS011;35615;41.410;2.194;2023-04-01T05:57:57;39.22;;;10.38;;
49396;SDS011;35615;41.410;2.194;2023-04-01T06:00:27;24.50;;;8.95;;
49396;SDS011;35615;41.410;2.194;2023-04-01T06:02:58;20.90;;;7.25;;
49396;SDS011;35615;41.410;2.194;2023-04-01T06:05:28;28.27;;;6.88;;
49396;SDS011;35615;41.410;2.194;2023-04-01T06:07:59;18.10;;;5.85;;
49396;SDS011;35615;41.410;2.194;2023-04-01T06:10:42;20.13;;;6.38;;
49396;SDS011;35615;41.410;2.194;2023-04-01T06:17:00;27.38;;;6.72;;
49396;SDS011;35615;41.410;2.194;2023-04-01T06:30:43;12.50;;;5.57;;
49396;SDS011;35615;41.410;2.194;2023-04-01T06:34:08;19.17;;;5.60;;
49396;SDS011;35615;41.410;2.194;2023-04-01T06:50:57;20.15;;;5.55;;
49396;SDS011;35615;41.410;2.194;2023-04-01T06:54:13;15.93;;;5.95;;
49396;SDS011;35615;41.410;2.194;2023-04-01T06:57:17;17.85;;;5.28;;
49396;SDS011;35615;41.410;2.194;2023-04-01T06:59:57;20.42;;;4.82;;
49396;SDS011;35615;41.410;2.194;2023-04-01T07:05:00;25.92;;;5.40;;
49396;SDS011;35615;41.410;2.194;2023-04-01T07:07:37;24.52;;;6.07;;
49396;SDS011;35615;41.410;2.194;2023-04-01T07:10:42;20.00;;;5.28;;
49396;SDS011;35615;41.410;2.194;2023-04-01T07:13:46;20.67;;;5.55;;
49396;SDS011;35615;41.410;2.194;2023-04-01T07:16:36;15.48;;;5.53;;
49396;SDS011;35615;41.410;2.194;2023-04-01T07:19:31;18.20;;;6.32;;
49396;SDS011;35615;41.410;2.194;2023-04-01T07:22:26;21.00;;;5.43;;
49396;SDS011;35615;41.410;2.194;2023-04-01T07:25:29;20.17;;;5.63;;
49396;SDS011;35615;41.410;2.194;2023-04-01T07:28:31;15.88;;;5.43;;
49396;SDS011;35615;41.410;2.194;2023-04-01T08:04:46;24.92;;;6.40;;
49396;SDS011;35615;41.410;2.194;2023-04-01T08:07:30;18.88;;;6.28;;
49396;SDS011;35615;41.410;2.194;2023-04-01T08:10:40;18.27;;;5.43;;
49396;SDS011;35615;41.410;2.194;2023-04-01T08:13:44;25.83;;;5.60;;
49396;SDS011;35615;41.410;2.194;2023-04-01T08:22:53;23.70;;;6.80;;
49396;SDS011;35615;41.410;2.194;2023-04-01T08:25:33;18.17;;;5.65;;
49396;SDS011;35615;41.410;2.194;2023-04-01T08:31:45;14.75;;;5.43;;
49396;SDS011;35615;41.410;2.194;2023-04-01T08:34:23;18.25;;;6.35;;
49396;SDS011;35615;41.410;2.194;2023-04-01T08:37:04;21.15;;;5.78;;
49396;SDS011;35615;41.410;2.194;2023-04-01T08:39:37;16.92;;;5.63;;
49396;SDS011;35615;41.410;2.194;2023-04-01T08:48:19;24.08;;;5.80;;
49396;SDS011;35615;41.410;2.194;2023-04-01T08:54:21;18.48;;;5.95;;
49396;SDS011;35615;41.410;2.194;2023-04-01T08:57:21;21.05;;;6.22;;
49396;SDS011;35615;41.410;2.194;2023-04-01T09:00:31;21.52;;;5.82;;
49396;SDS011;35615;41.410;2.194;2023-04-01T09:32:09;18.65;;;6.63;;
49396;SDS011;35615;41.410;2.194;2023-04-01T09:50:17;12.23;;;5.00;;
49396;SDS011;35615;41.410;2.194;2023-04-01T10:16:15;17.65;;;5.00;;
49396;SDS011;35615;41.410;2.194;2023-04-01T10:33:54;18.20;;;6.47;;
49396;SDS011;35615;41.410;2.194;2023-04-01T10:36:47;14.32;;;5.57;;
49396;SDS011;35615;41.410;2.194;2023-04-01T10:39:34;16.13;;;4.85;;
49396;SDS011;35615;41.410;2.194;2023-04-01T10:48:21;17.60;;;5.78;;
49396;SDS011;35615;41.410;2.194;2023-04-01T10:51:25;20.08;;;4.97;;
49396;SDS011;35615;41.410;2.194;2023-04-01T11:10:40;21.90;;;5.22;;
49396;SDS011;35615;41.410;2.194;2023-04-01T11:24:55;14.95;;;5.07;;
49396;SDS011;35615;41.410;2.194;2023-04-01T11:33:54;22.40;;;4.90;;
49396;SDS011;35615;41.410;2.194;2023-04-01T11:46:55;15.77;;;4.95;;
49396;SDS011;35615;41.410;2.194;2023-04-01T11:55:38;12.57;;;5.38;;
49396;SDS011;35615;41.410;2.194;2023-04-01T11:58:37;17.55;;;5.47;;
49396;SDS011;35615;41.410;2.194;2023-04-01T12:01:13;15.98;;;5.65;;
49396;SDS011;35615;41.410;2.194;2023-04-01T12:09:37;12.05;;;4.78;;
49396;SDS011;35615;41.410;2.194;2023-04-01T12:18:26;15.98;;;5.03;;
49396;SDS011;35615;41.410;2.194;2023-04-01T12:33:04;16.08;;;6.07;;
49396;SDS011;35615;41.410;2.194;2023-04-01T12:39:06;17.55;;;4.82;;
49396;SDS011;35615;41.410;2.194;2023-04-01T12:59:58;11.73;;;3.83;;
49396;SDS011;35615;41.410;2.194;2023-04-01T13:12:04;13.33;;;5.03;;
49396;SDS011;35615;41.410;2.194;2023-04-01T13:14:34;16.10;;;5.53;;
49396;SDS011;35615;41.410;2.194;2023-04-01T13:26:06;16.25;;;5.22;;
49396;SDS011;35615;41.410;2.194;2023-04-01T13:28:50;13.88;;;4.40;;
49396;SDS011;35615;41.410;2.194;2023-04-01T13:37:17;11.53;;;4.43;;
49396;SDS011;35615;41.410;2.194;2023-04-01T13:40:39;12.98;;;3.92;;
49396;SDS011;35615;41.410;2.194;2023-04-01T13:43:49;14.32;;;3.65;;
49396;SDS011;35615;41.410;2.194;2023-04-01T13:49:23;9.75;;;3.33;;
49396;SDS011;35615;41.410;2.194;2023-04-01T13:55:20;14.75;;;4.10;;
49396;SDS011;35615;41.410;2.194;2023-04-01T13:58:22;12.88;;;3.83;;
49396;SDS011;35615;41.410;2.194;2023-04-01T14:01:10;18.45;;;3.95;;
49396;SDS011;35615;41.410;2.194;2023-04-01T14:09:26;8.90;;;3.47;;
49396;SDS011;35615;41.410;2.194;2023-04-01T14:12:30;9.32;;;3.40;;
49396;SDS011;35615;41.410;2.194;2023-04-01T14:32:39;12.30;;;3.72;;
49396;SDS011;35615;41.410;2.194;2023-04-01T14:38:54;14.90;;;3.42;;
49396;SDS011;35615;41.410;2.194;2023-04-01T14:47:40;16.40;;;4.53;;
49396;SDS011;35615;41.410;2.194;2023-04-01T14:50:17;15.32;;;4.60;;
49396;SDS011;35615;41.410;2.194;2023-04-01T14:55:46;18.60;;;3.42;;
49396;SDS011;35615;41.410;2.194;2023-04-01T14:58:19;19.17;;;4.15;;
49396;SDS011;35615;41.410;2.194;2023-04-01T15:00:59;17.95;;;3.72;;
49396;SDS011;35615;41.410;2.194;2023-04-01T15:03:53;12.90;;;4.07;;
49396;SDS011;35615;41.410;2.194;2023-04-01T15:09:57;13.65;;;4.03;;
49396;SDS011;35615;41.410;2.194;2023-04-01T15:12:29;16.42;;;4.32;;
49396;SDS011;35615;41.410;2.194;2023-04-01T15:38:52;10.68;;;3.70;;
49396;SDS011;35615;41.410;2.194;2023-04-01T15:42:28;15.50;;;4.55;;
49396;SDS011;35615;41.410;2.194;2023-04-01T15:44:55;16.43;;;3.93;;
49396;SDS011;35615;41.410;2.194;2023-04-01T15:47:31;18.77;;;3.90;;
49396;SDS011;35615;41.410;2.194;2023-04-01T15:53:18;14.40;;;4.45;;
49396;SDS011;35615;41.410;2.194;2023-04-01T16:09:25;15.77;;;4.28;;
49396;SDS011;35615;41.410;2.194;2023-04-01T16:17:40;14.55;;;4.10;;
49396;SDS011;35615;41.410;2.194;2023-04-01T16:20:42;12.00;;;4.07;;
49396;SDS011;35615;41.410;2.194;2023-04-01T16:23:16;23.25;;;5.03;;
49396;SDS011;35615;41.410;2.194;2023-04-01T16:26:03;15.48;;;5.22;;
49396;SDS011;35615;41.410;2.194;2023-04-01T16:28:42;21.60;;;4.47;;
49396;SDS011;35615;41.410;2.194;2023-04-01T16:31:27;22.35;;;4.53;;
49396;SDS011;35615;41.410;2.194;2023-04-01T16:34:04;14.00;;;4.63;;
49396;SDS011;35615;41.410;2.194;2023-04-01T16:42:20;7.80;;;2.22;;
49396;SDS011;35615;41.410;2.194;2023-04-01T16:45:06;16.40;;;2.30;;
49396;SDS011;35615;41.410;2.194;2023-04-01T16:50:21;18.27;;;2.42;;
49396;SDS011;35615;41.410;2.194;2023-04-01T16:53:02;12.73;;;3.03;;
49396;SDS011;35615;41.410;2.194;2023-04-01T16:55:55;16.42;;;1.98;;
49396;SDS011;35615;41.410;2.194;2023-04-01T16:58:36;10.85;;;2.28;;
49396;SDS011;35615;41.410;2.194;2023-04-01T17:01:13;28.48;;;4.45;;
49396;SDS011;35615;41.410;2.194;2023-04-01T17:04:00;12.80;;;3.80;;
49396;SDS011;35615;41.410;2.194;2023-04-01T17:12:44;8.93;;;2.35;;
49396;SDS011;35615;41.410;2.194;2023-04-01T17:15:42;15.40;;;1.75;;
49396;SDS011;35615;41.410;2.194;2023-04-01T17:29:42;4.35;;;1.92;;
49396;SDS011;35615;41.410;2.194;2023-04-01T17:32:17;4.82;;;1.80;;
49396;SDS011;35615;41.410;2.194;2023-04-01T17:35:05;5.68;;;1.70;;
49396;SDS011;35615;41.410;2.194;2023-04-01T17:38:19;8.35;;;3.33;;
49396;SDS011;35615;41.410;2.194;2023-04-01T17:41:20;6.35;;;1.48;;
49396;SDS011;35615;41.410;2.194;2023-04-01T17:52:44;10.20;;;2.83;;
49396;SDS011;35615;41.410;2.194;2023-04-01T17:55:45;6.53;;;1.98;;
49396;SDS011;35615;41.410;2.194;2023-04-01T18:01:23;4.97;;;2.15;;
49396;SDS011;35615;41.410;2.194;2023-04-01T18:04:18;10.57;;;3.13;;
49396;SDS011;35615;41.410;2.194;2023-04-01T18:09:56;4.18;;;1.60;;
49396;SDS011;35615;41.410;2.194;2023-04-01T18:13:09;10.90;;;3.30;;
49396;SDS011;35615;41.410;2.194;2023-04-01T18:24:09;17.45;;;5.20;;
49396;SDS011;35615;41.410;2.194;2023-04-01T18:26:49;15.02;;;4.80;;
49396;SDS011;35615;41.410;2.194;2023-04-01T18:38:12;25.25;;;5.88;;
49396;SDS011;35615;41.410;2.194;2023-04-01T18:41:05;22.55;;;5.07;;
49396;SDS011;35615;41.410;2.194;2023-04-01T18:51:59;30.45;;;5.22;;
49396;SDS011;35615;41.410;2.194;2023-04-01T19:05:39;21.25;;;5.15;;
49396;SDS011;35615;41.410;2.194;2023-04-01T19:11:17;23.98;;;4.47;;
49396;SDS011;35615;41.410;2.194;2023-04-01T19:26:05;21.23;;;4.05;;
49396;SDS011;35615;41.410;2.194;2023-04-01T19:28:43;15.95;;;4.03;;
49396;SDS011;35615;41.410;2.194;2023-04-01T19:37:22;15.60;;;3.10;;
49396;SDS011;35615;41.410;2.194;2023-04-01T19:43:34;12.73;;;3.67;;
49396;SDS011;35615;41.410;2.194;2023-04-01T19:46:10;22.13;;;4.10;;
49396;SDS011;35615;41.410;2.194;2023-04-01T19:49:05;18.83;;;3.55;;
49396;SDS011;35615;41.410;2.194;2023-04-01T19:59:48;19.50;;;4.55;;
49396;SDS011;35615;41.410;2.194;2023-04-01T20:02:38;16.45;;;3.60;;
49396;SDS011;35615;41.410;2.194;2023-04-01T20:19:35;7.80;;;3.00;;
49396;SDS011;35615;41.410;2.194;2023-04-01T20:22:16;11.60;;;3.05;;
49396;SDS011;35615;41.410;2.194;2023-04-01T20:24:52;15.40;;;3.50;;
49396;SDS011;35615;41.410;2.194;2023-04-01T20:27:25;10.15;;;3.60;;
49396;SDS011;35615;41.410;2.194;2023-04-01T20:33:00;14.48;;;3.80;;
49396;SDS011;35615;41.410;2.194;2023-04-01T20:39:04;12.27;;;3.75;;
49396;SDS011;35615;41.410;2.194;2023-04-01T20:50:06;18.83;;;3.85;;
49396;SDS011;35615;41.410;2.194;2023-04-01T20:58:29;23.50;;;4.55;;
49396;SDS011;35615;41.410;2.194;2023-04-01T21:06:58;10.60;;;3.08;;
49396;SDS011;35615;41.410;2.194;2023-04-01T21:21:21;10.48;;;3.55;;
49396;SDS011;35615;41.410;2.194;2023-04-01T21:32:27;12.50;;;3.33;;
49396;SDS011;35615;41.410;2.194;2023-04-01T21:46:26;12.50;;;3.10;;
49396;SDS011;35615;41.410;2.194;2023-04-01T21:52:10;13.82;;;3.03;;
49396;SDS011;35615;41.410;2.194;2023-04-01T21:55:02;6.10;;;2.50;;
49396;SDS011;35615;41.410;2.194;2023-04-01T22:08:55;7.60;;;2.38;;
49396;SDS011;35615;41.410;2.194;2023-04-01T22:11:42;5.65;;;1.90;;
49396;SDS011;35615;41.410;2.194;2023-04-01T22:20:44;7.45;;;2.38;;
49396;SDS011;35615;41.410;2.194;2023-04-01T22:26:52;7.32;;;1.67;;
49396;SDS011;35615;41.410;2.194;2023-04-01T22:32:23;8.95;;;1.92;;
49396;SDS011;35615;41.410;2.194;2023-04-01T22:38:03;9.77;;;2.38;;
49396;SDS011;35615;41.410;2.194;2023-04-01T22:43:37;7.57;;;1.80;;
49396;SDS011;35615;41.410;2.194;2023-04-01T22:46:26;9.88;;;2.03;;
49396;SDS011;35615;41.410;2.194;2023-04-01T22:55:20;10.55;;;1.90;;
49396;SDS011;35615;41.410;2.194;2023-04-01T23:00:26;6.07;;;1.50;;
49396;SDS011;35615;41.410;2.194;2023-04-01T23:05:46;8.25;;;1.77;;
49396;SDS011;35615;41.410;2.194;2023-04-01T23:08:36;4.10;;;1.25;;
49396;SDS011;35615;41.410;2.194;2023-04-01T23:26:00;5.47;;;2.40;;
49396;SDS011;35615;41.410;2.194;2023-04-01T23:31:24;7.38;;;2.42;;
49396;SDS011;35615;41.410;2.194;2023-04-01T23:34:21;9.88;;;2.67;;
49396;SDS011;35615;41.410;2.194;2023-04-01T23:36:50;14.05;;;3.10;;
49396;SDS011;35615;41.410;2.194;2023-04-01T23:39:23;9.98;;;3.20;;
49396;SDS011;35615;41.410;2.194;2023-04-01T23:42:00;10.77;;;3.17;;
49396;SDS011;35615;41.410;2.194;2023-04-01T23:44:33;8.07;;;2.45;;
49396;SDS011;35615;41.410;2.194;2023-04-01T23:47:03;10.07;;;3.17;;
49396;SDS011;35615;41.410;2.194;2023-04-01T23:49:39;8.05;;;2.60;;
49396;SDS011;35615;41.410;2.194;2023-04-01T23:52:20;9.52;;;3.50;;
49396;SDS011;35615;41.410;2.194;2023-04-01T23:57:31;12.65;;;3.05;;
